nws-alerts: Checking more than four warning/county codes can delay the loading of your pages. You should use a cron job to get the data.
EllijayWeather Station Historical Data
Daily Summary for January 4, 2019 Units:  English    Metric   Both
Daily Weekly Monthly Yearly Custom
  High: Low: Average:
Temperature: 57.4 °F 41.7 °F 50.6 °F
Dew Point: 54.9 °F 39.9 °F 49.2 °F
Humidity: 100% 86% 95%
Wind Speed: 8.9mph 0.0mph 0.6mph
Wind Gust: 13.0mph - -
Wind- - SE
Pressure: 30.01 in 29.63 in -
Precipitation: 0.41 in    
Historical Graphs
 
 
Tabular Data for January 4, 2019
Time Temperature Dew Point Pressure Wind Wind Speed Wind Gust Humidity Rainfall Rate (Hourly) solar
00:04 49.8 °F 49.5 °F 30.01 in Calm     99% 0.04 in meteobridge W/m2
00:09 49.8 °F 49.5 °F 30.01 in Calm     99% 0.04 in meteobridge W/m2
00:14 49.8 °F 49.8 °F 30.01 in Calm     100% 0.04 in meteobridge W/m2
00:19 49.8 °F 49.5 °F 30.01 in Calm     99% 0.03 in meteobridge W/m2
00:24 49.8 °F 49.8 °F 30.00 in Calm     100% 0.04 in meteobridge W/m2
00:29 49.8 °F 49.8 °F 30.01 in Calm     100% 0.04 in meteobridge W/m2
00:34 49.8 °F 49.8 °F 30.01 in Calm     100% 0.04 in meteobridge W/m2
00:39 49.8 °F 49.5 °F 30.00 in Calm     99% 0.03 in meteobridge W/m2
00:44 49.8 °F 49.8 °F 30.00 in Calm     100% 0.03 in meteobridge W/m2
00:49 49.8 °F 49.8 °F 30.00 in Calm     100% 0.04 in meteobridge W/m2
00:54 49.8 °F 49.8 °F 30.00 in Calm     100% 0.03 in meteobridge W/m2
00:59 49.8 °F 49.8 °F 30.00 in Calm     100% 0.03 in meteobridge W/m2
01:04 49.8 °F 49.8 °F 30.00 in Calm     100% 0.02 in meteobridge W/m2
01:09 49.8 °F 49.8 °F 30.00 in Calm     100% 0.03 in meteobridge W/m2
01:14 49.8 °F 49.8 °F 29.99 in Calm     100% 0.03 in meteobridge W/m2
01:19 49.8 °F 49.8 °F 29.99 in Calm     100% 0.03 in meteobridge W/m2
01:24 49.8 °F 49.8 °F 29.99 in Calm     100% 0.02 in meteobridge W/m2
01:29 50.0 °F 50.0 °F 29.99 in Calm     100% 0.02 in meteobridge W/m2
01:34 50.0 °F 50.0 °F 29.99 in Calm     100% 0.02 in meteobridge W/m2
01:39 50.0 °F 50.0 °F 29.99 in Calm     100% 0.03 in meteobridge W/m2
01:44 50.2 °F 50.2 °F 29.99 in Calm     100% 0.03 in meteobridge W/m2
01:49 50.4 °F 50.4 °F 29.98 in Calm     100% 0.02 in meteobridge W/m2
01:54 50.5 °F 50.5 °F 29.98 in Calm     100% 0.02 in meteobridge W/m2
01:59 51.1 °F 51.1 °F 29.99 in Calm     100% 0.03 in meteobridge W/m2
02:04 51.1 °F 51.1 °F 29.98 in Calm     100% 0.03 in meteobridge W/m2
02:09 51.6 °F 51.6 °F 29.98 in Calm     100% 0.03 in meteobridge W/m2
02:14 51.6 °F 51.6 °F 29.99 in Calm     100% 0.03 in meteobridge W/m2
02:19 52.0 °F 52.0 °F 29.99 in Calm     100% 0.03 in meteobridge W/m2
02:24 52.2 °F 52.2 °F 29.98 in Calm     100% 0.04 in meteobridge W/m2
02:29 52.2 °F 52.2 °F 29.98 in Calm     100% 0.04 in meteobridge W/m2
02:34 52.2 °F 52.2 °F 29.97 in Calm     100% 0.03 in meteobridge W/m2
02:39 52.2 °F 52.2 °F 29.98 in Calm     100% 0.03 in meteobridge W/m2
02:44 52.2 °F 52.2 °F 29.97 in NW 0.9 mph 1.0 mph 100% 0.03 in meteobridge W/m2
02:49 52.2 °F 52.2 °F 29.97 in Calm     100% 0.04 in meteobridge W/m2
02:54 52.3 °F 52.3 °F 29.96 in Calm     100% 0.04 in meteobridge W/m2
02:59 52.3 °F 52.3 °F 29.96 in Calm     100% 0.03 in meteobridge W/m2
03:04 52.3 °F 52.3 °F 29.96 in Calm     100% 0.04 in meteobridge W/m2
03:09 52.3 °F 52.3 °F 29.96 in Calm     100% 0.03 in meteobridge W/m2
03:14 52.5 °F 52.5 °F 29.96 in Calm   5.0 mph 100% 0.03 in meteobridge W/m2
03:19 52.5 °F 52.5 °F 29.96 in Calm     100% 0.03 in meteobridge W/m2
03:24 52.5 °F 52.5 °F 29.96 in Calm     100% 0.03 in meteobridge W/m2
03:29 52.5 °F 52.5 °F 29.95 in Calm     100% 0.03 in meteobridge W/m2
03:34 52.5 °F 52.5 °F 29.95 in Calm     100% 0.04 in meteobridge W/m2
03:39 52.5 °F 52.5 °F 29.95 in Calm   2.0 mph 100% 0.04 in meteobridge W/m2
03:44 52.5 °F 52.5 °F 29.95 in Calm     100% 0.05 in meteobridge W/m2
03:49 52.5 °F 52.5 °F 29.95 in Calm     100% 0.04 in meteobridge W/m2
03:54 52.5 °F 52.2 °F 29.94 in Calm     99% 0.04 in meteobridge W/m2
03:59 52.3 °F 52.0 °F 29.94 in ESE 0.9 mph 1.0 mph 99% 0.05 in meteobridge W/m2
04:04 52.5 °F 52.2 °F 29.94 in Calm     99% 0.04 in meteobridge W/m2
04:09 52.3 °F 52.0 °F 29.94 in Calm     99% 0.04 in meteobridge W/m2
04:14 52.3 °F 52.0 °F 29.94 in Calm   1.0 mph 99% 0.04 in meteobridge W/m2
04:19 52.3 °F 52.0 °F 29.94 in SE 2.0 mph 4.0 mph 99% 0.04 in meteobridge W/m2
04:24 52.5 °F 52.2 °F 29.93 in Calm     99% 0.04 in meteobridge W/m2
04:29 52.5 °F 52.2 °F 29.93 in Calm   2.0 mph 99% 0.04 in meteobridge W/m2
04:34 52.5 °F 52.2 °F 29.93 in Calm     99% 0.03 in meteobridge W/m2
04:39 52.5 °F 52.2 °F 29.93 in Calm     99% 0.04 in meteobridge W/m2
04:44 52.5 °F 52.2 °F 29.92 in Calm   2.0 mph 99% 0.03 in meteobridge W/m2
04:49 52.5 °F 52.2 °F 29.92 in Calm   2.0 mph 99% 0.04 in meteobridge W/m2
04:54 52.5 °F 52.2 °F 29.91 in SE 2.0 mph 2.0 mph 99% 0.04 in meteobridge W/m2
04:59 52.5 °F 52.2 °F 29.91 in SE 0.9 mph 5.0 mph 99% 0.04 in meteobridge W/m2
05:04 52.5 °F 52.2 °F 29.91 in Calm   1.0 mph 99% 0.04 in meteobridge W/m2
05:09 52.3 °F 52.0 °F 29.91 in Calm   2.0 mph 99% 0.04 in meteobridge W/m2
05:14 52.5 °F 52.2 °F 29.90 in Calm   1.0 mph 99% 0.05 in meteobridge W/m2
05:19 52.3 °F 52.0 °F 29.90 in SSE 2.0 mph 4.0 mph 99% 0.05 in meteobridge W/m2
05:24 52.3 °F 52.0 °F 29.90 in SE 0.9 mph 2.0 mph 99% 0.05 in meteobridge W/m2
05:29 52.3 °F 52.0 °F 29.90 in Calm   2.0 mph 99% 0.05 in meteobridge W/m2
05:34 52.5 °F 52.2 °F 29.90 in Calm     99% 0.05 in meteobridge W/m2
05:39 52.5 °F 52.2 °F 29.91 in Calm   1.0 mph 99% 0.05 in meteobridge W/m2
05:44 52.3 °F 52.0 °F 29.91 in Calm     99% 0.07 in meteobridge W/m2
05:49 52.3 °F 52.0 °F 29.90 in SE 4.0 mph 4.0 mph 99% 0.07 in meteobridge W/m2
05:54 52.3 °F 52.0 °F 29.89 in SE 0.9 mph 4.0 mph 99% 0.08 in meteobridge W/m2
05:59 52.3 °F 52.0 °F 29.89 in SE 2.0 mph 6.0 mph 99% 0.07 in meteobridge W/m2
06:04 52.3 °F 52.0 °F 29.88 in East 0.9 mph 4.0 mph 99% 0.08 in meteobridge W/m2
06:09 52.3 °F 51.8 °F 29.88 in SE 0.9 mph 2.0 mph 98% 0.08 in meteobridge W/m2
06:14 52.3 °F 51.8 °F 29.88 in Calm   5.0 mph 98% 0.08 in meteobridge W/m2
06:19 52.3 °F 51.8 °F 29.88 in SE 6.0 mph 7.0 mph 98% 0.08 in meteobridge W/m2
06:24 52.3 °F 51.8 °F 29.87 in ESE 0.9 mph 4.0 mph 98% 0.07 in meteobridge W/m2
06:29 52.3 °F 51.8 °F 29.87 in Calm   4.0 mph 98% 0.07 in meteobridge W/m2
06:34 52.3 °F 51.8 °F 29.86 in SE 0.9 mph 5.0 mph 98% 0.07 in meteobridge W/m2
06:39 52.2 °F 51.6 °F 29.85 in Calm   5.0 mph 98% 0.07 in meteobridge W/m2
06:44 52.2 °F 51.6 °F 29.84 in ESE 4.0 mph 7.0 mph 98% 0.05 in meteobridge W/m2
06:49 52.3 °F 51.8 °F 29.83 in Calm   5.0 mph 98% 0.05 in meteobridge W/m2
06:54 52.3 °F 51.8 °F 29.83 in SE 4.0 mph 5.0 mph 98% 0.05 in meteobridge W/m2
06:59 52.3 °F 51.8 °F 29.83 in Calm   5.0 mph 98% 0.05 in meteobridge W/m2
07:04 52.3 °F 51.8 °F 29.83 in East 4.0 mph 4.0 mph 98% 0.04 in meteobridge W/m2
07:09 52.5 °F 52.0 °F 29.82 in Calm   2.0 mph 98% 0.04 in meteobridge W/m2
07:14 52.5 °F 52.2 °F 29.82 in Calm   4.0 mph 99% 0.03 in meteobridge W/m2
07:18 52.5 °F 52.2 °F 29.83 in Calm   2.0 mph 99% 0.03 in meteobridge W/m2
07:24 52.9 °F 52.5 °F 29.83 in Calm   5.0 mph 99% 0.03 in meteobridge W/m2
07:29 52.9 °F 52.5 °F 29.82 in East 2.9 mph 6.0 mph 99% 0.03 in meteobridge W/m2
07:34 53.1 °F 52.5 °F 29.82 in SE 2.0 mph 5.0 mph 98% 0.03 in meteobridge W/m2
07:39 53.2 °F 52.7 °F 29.82 in Calm   2.0 mph 98% 0.02 in meteobridge W/m2
07:44 53.2 °F 52.7 °F 29.83 in SE 2.0 mph 4.0 mph 98% 0.02 in meteobridge W/m2
07:49 53.2 °F 52.7 °F 29.83 in Calm   2.0 mph 98% 0.01 in meteobridge W/m2
07:54 53.2 °F 52.7 °F 29.83 in SE 0.9 mph 5.0 mph 98% 0.00 in meteobridge W/m2
07:59 53.2 °F 52.7 °F 29.83 in SE 2.0 mph 6.0 mph 98% 0.00 in meteobridge W/m2
08:04 53.4 °F 52.5 °F 29.83 in Calm   1.0 mph 97% 0.00 in meteobridge W/m2
08:09 53.4 °F 52.5 °F 29.83 in ESE 4.9 mph 6.0 mph 97% 0.00 in meteobridge W/m2
08:14 53.4 °F 52.5 °F 29.83 in Calm   7.0 mph 97% 0.00 in meteobridge W/m2
08:19 53.4 °F 52.5 °F 29.83 in ESE 4.0 mph 7.0 mph 97% 0.00 in meteobridge W/m2
08:24 53.6 °F 52.7 °F 29.82 in ESE 2.0 mph 7.0 mph 97% 0.00 in meteobridge W/m2
08:29 53.6 °F 52.7 °F 29.82 in Calm   5.0 mph 97% 0.00 in meteobridge W/m2
08:34 53.6 °F 52.7 °F 29.83 in East 2.0 mph 5.0 mph 97% 0.00 in meteobridge W/m2
08:39 53.6 °F 52.7 °F 29.82 in East 0.9 mph 1.0 mph 97% 0.00 in meteobridge W/m2
08:44 53.6 °F 52.7 °F 29.83 in East 4.9 mph 5.0 mph 97% 0.00 in meteobridge W/m2
08:49 53.8 °F 52.9 °F 29.82 in ESE 2.0 mph 5.0 mph 97% 0.00 in meteobridge W/m2
08:54 53.6 °F 52.7 °F 29.83 in Calm   5.0 mph 97% 0.00 in meteobridge W/m2
08:59 53.8 °F 52.7 °F 29.83 in Calm   4.0 mph 96% 0.00 in meteobridge W/m2
09:04 53.8 °F 52.9 °F 29.83 in Calm   10.0 mph 97% 0.00 in meteobridge W/m2
09:09 53.8 °F 52.9 °F 29.83 in ESE 0.9 mph 6.0 mph 97% 0.00 in meteobridge W/m2
09:14 53.8 °F 52.7 °F 29.83 in Calm   13.0 mph 96% 0.00 in meteobridge W/m2
09:19 54.0 °F 52.9 °F 29.83 in South 4.0 mph 6.0 mph 96% 0.00 in meteobridge W/m2
09:24 54.0 °F 52.9 °F 29.83 in Calm   6.0 mph 96% 0.00 in meteobridge W/m2
09:29 53.8 °F 52.7 °F 29.83 in Calm   5.0 mph 96% 0.00 in meteobridge W/m2
09:34 54.0 °F 52.9 °F 29.83 in Calm   2.0 mph 96% 0.00 in meteobridge W/m2
09:39 53.8 °F 52.7 °F 29.83 in Calm   4.0 mph 96% 0.00 in meteobridge W/m2
09:44 54.0 °F 52.9 °F 29.84 in Calm   5.0 mph 96% 0.00 in meteobridge W/m2
09:49 54.0 °F 52.9 °F 29.83 in Calm   7.0 mph 96% 0.00 in meteobridge W/m2
09:54 54.0 °F 52.5 °F 29.83 in NNE 2.9 mph 9.0 mph 95% 0.00 in meteobridge W/m2
09:59 54.1 °F 53.1 °F 29.83 in ESE 4.0 mph 5.0 mph 96% 0.00 in meteobridge W/m2
10:04 54.1 °F 53.1 °F 29.83 in Calm   2.0 mph 96% 0.00 in meteobridge W/m2
10:09 54.1 °F 53.1 °F 29.83 in SE 6.0 mph 6.0 mph 96% 0.00 in meteobridge W/m2
10:14 54.1 °F 52.7 °F 29.83 in East 2.0 mph 4.0 mph 95% 0.00 in meteobridge W/m2
10:19 54.1 °F 52.7 °F 29.82 in Calm   5.0 mph 95% 0.00 in meteobridge W/m2
10:24 54.1 °F 52.7 °F 29.82 in SE 4.9 mph 11.0 mph 95% 0.00 in meteobridge W/m2
10:29 54.3 °F 52.9 °F 29.82 in NE 2.9 mph 6.0 mph 95% 0.00 in meteobridge W/m2
10:34 54.7 °F 53.2 °F 29.81 in East 2.0 mph 5.0 mph 95% 0.00 in meteobridge W/m2
10:39 54.7 °F 53.1 °F 29.81 in Calm   5.0 mph 94% 0.00 in meteobridge W/m2
10:44 54.7 °F 53.2 °F 29.80 in SE 4.9 mph 7.0 mph 95% 0.00 in meteobridge W/m2
10:49 54.7 °F 53.2 °F 29.80 in SE 0.9 mph 5.0 mph 95% 0.00 in meteobridge W/m2
10:54 54.7 °F 53.1 °F 29.79 in East 6.9 mph 8.0 mph 94% 0.00 in meteobridge W/m2
10:59 54.9 °F 53.4 °F 29.78 in East 4.0 mph 8.0 mph 95% 0.00 in meteobridge W/m2
11:04 54.9 °F 53.2 °F 29.78 in SE 0.9 mph 6.0 mph 94% 0.00 in meteobridge W/m2
11:09 54.7 °F 53.2 °F 29.78 in SE 0.9 mph 8.0 mph 95% 0.00 in meteobridge W/m2
11:14 54.9 °F 53.4 °F 29.78 in Calm   8.0 mph 95% 0.00 in meteobridge W/m2
11:19 54.9 °F 53.4 °F 29.77 in Calm   6.0 mph 95% 0.00 in meteobridge W/m2
11:24 54.9 °F 53.4 °F 29.77 in Calm   1.0 mph 95% 0.00 in meteobridge W/m2
11:29 55.0 °F 54.0 °F 29.77 in ESE 2.0 mph 5.0 mph 96% 0.00 in meteobridge W/m2
11:34 55.2 °F 53.8 °F 29.76 in Calm   1.0 mph 95% 0.00 in meteobridge W/m2
11:38 55.2 °F 53.8 °F 29.76 in SSE 2.0 mph 4.0 mph 95% 0.00 in meteobridge W/m2
11:44 55.4 °F 54.0 °F 29.75 in SE 2.0 mph 2.0 mph 95% 0.00 in meteobridge W/m2
11:49 55.6 °F 54.0 °F 29.75 in Calm   6.0 mph 94% 0.00 in meteobridge W/m2
11:54 55.6 °F 53.6 °F 29.74 in Calm     93% 0.00 in meteobridge W/m2
11:59 55.8 °F 53.8 °F 29.74 in ESE 0.9 mph 1.0 mph 93% 0.00 in meteobridge W/m2
12:04 55.8 °F 54.1 °F 29.74 in Calm     94% 0.00 in meteobridge W/m2
12:09 55.6 °F 53.6 °F 29.73 in Calm   3.0 mph 93% 0.00 in meteobridge W/m2
12:14 55.6 °F 54.0 °F 29.72 in ESE 4.0 mph 4.0 mph 94% 0.00 in meteobridge W/m2
12:19 55.8 °F 53.4 °F 29.72 in East 0.9 mph 4.0 mph 92% 0.00 in meteobridge W/m2
12:24 55.9 °F 54.0 °F 29.71 in Calm   5.0 mph 93% 0.00 in meteobridge W/m2
12:29 56.1 °F 53.6 °F 29.71 in Calm   6.0 mph 91% 0.00 in meteobridge W/m2
12:34 56.1 °F 53.8 °F 29.71 in Calm   4.0 mph 92% 0.00 in meteobridge W/m2
12:39 56.3 °F 53.8 °F 29.71 in SE 0.9 mph 4.0 mph 91% 0.00 in meteobridge W/m2
12:44 56.3 °F 53.4 °F 29.70 in Calm   5.0 mph 90% 0.00 in meteobridge W/m2
12:49 56.5 °F 54.0 °F 29.70 in Calm     91% 0.00 in meteobridge W/m2
12:54 56.5 °F 53.6 °F 29.69 in Calm   7.0 mph 90% 0.00 in meteobridge W/m2
12:59 56.5 °F 53.6 °F 29.69 in Calm   4.0 mph 90% 0.00 in meteobridge W/m2
13:04 56.7 °F 53.8 °F 29.69 in Calm   2.0 mph 90% 0.00 in meteobridge W/m2
13:09 56.7 °F 53.8 °F 29.69 in Calm   1.0 mph 90% 0.00 in meteobridge W/m2
13:14 56.7 °F 53.8 °F 29.69 in SE 2.0 mph 6.0 mph 90% 0.00 in meteobridge W/m2
13:19 56.7 °F 53.8 °F 29.68 in Calm   1.0 mph 90% 0.00 in meteobridge W/m2
13:24 56.7 °F 54.1 °F 29.67 in Calm   4.0 mph 91% 0.00 in meteobridge W/m2
13:29 56.7 °F 53.8 °F 29.67 in Calm   5.0 mph 90% 0.00 in meteobridge W/m2
13:34 56.5 °F 53.6 °F 29.67 in SE 0.9 mph 6.0 mph 90% 0.00 in meteobridge W/m2
13:39 56.5 °F 53.6 °F 29.66 in ESE 2.0 mph 5.0 mph 90% 0.00 in meteobridge W/m2
13:44 56.3 °F 53.4 °F 29.66 in ESE 6.9 mph 8.0 mph 90% 0.00 in meteobridge W/m2
13:49 56.1 °F 53.2 °F 29.66 in Calm   4.0 mph 90% 0.00 in meteobridge W/m2
13:54 56.3 °F 53.8 °F 29.66 in Calm     91% 0.00 in meteobridge W/m2
13:59 56.5 °F 54.0 °F 29.66 in ESE 2.0 mph 4.0 mph 91% 0.00 in meteobridge W/m2
14:04 56.1 °F 53.2 °F 29.66 in Calm   5.0 mph 90% 0.00 in meteobridge W/m2
14:09 56.1 °F 53.6 °F 29.66 in SE 2.0 mph 5.0 mph 91% 0.00 in meteobridge W/m2
14:13 55.9 °F 53.4 °F 29.66 in Calm   4.0 mph 91% 0.00 in meteobridge W/m2
14:19 55.9 °F 53.4 °F 29.65 in ESE 0.9 mph 2.0 mph 91% 0.00 in meteobridge W/m2
14:24 55.8 °F 53.4 °F 29.65 in SE 0.9 mph 2.0 mph 92% 0.00 in meteobridge W/m2
14:29 55.8 °F 53.4 °F 29.65 in Calm   1.0 mph 92% 0.00 in meteobridge W/m2
14:34 55.8 °F 53.8 °F 29.65 in Calm     93% 0.00 in meteobridge W/m2
14:39 55.8 °F 53.8 °F 29.64 in Calm     93% 0.00 in meteobridge W/m2
14:44 55.8 °F 53.8 °F 29.65 in Calm     93% 0.00 in meteobridge W/m2
14:49 56.1 °F 54.1 °F 29.65 in Calm   1.0 mph 93% 0.00 in meteobridge W/m2
14:54 56.8 °F 54.9 °F 29.65 in Calm   2.0 mph 93% 0.00 in meteobridge W/m2
14:59 57.0 °F 54.7 °F 29.64 in Calm     92% 0.00 in meteobridge W/m2
15:04 57.2 °F 54.9 °F 29.64 in East 0.9 mph 1.0 mph 92% 0.00 in meteobridge W/m2
15:09 57.2 °F 54.7 °F 29.63 in Calm   4.0 mph 91% 0.00 in meteobridge W/m2
15:14 57.4 °F 54.9 °F 29.63 in Calm   1.0 mph 91% 0.00 in meteobridge W/m2
15:19 57.2 °F 54.7 °F 29.63 in Calm   1.0 mph 91% 0.00 in meteobridge W/m2
15:24 57.0 °F 54.7 °F 29.63 in Calm   1.0 mph 92% 0.00 in meteobridge W/m2
15:29 56.8 °F 54.9 °F 29.65 in Calm   1.0 mph 93% 0.01 in meteobridge W/m2
15:34 56.5 °F 54.5 °F 29.65 in SSE 0.9 mph 5.0 mph 93% 0.09 in meteobridge W/m2
15:39 55.8 °F 53.8 °F 29.64 in Calm     93% 0.10 in meteobridge W/m2
15:44 55.4 °F 53.8 °F 29.63 in Calm     94% 0.10 in meteobridge W/m2
15:49 55.2 °F 54.1 °F 29.63 in Calm   1.0 mph 96% 0.10 in meteobridge W/m2
15:54 55.0 °F 53.6 °F 29.63 in Calm     95% 0.10 in meteobridge W/m2
15:59 54.9 °F 53.4 °F 29.63 in Calm     95% 0.10 in meteobridge W/m2
16:04 54.9 °F 53.8 °F 29.63 in Calm     96% 0.10 in meteobridge W/m2
16:09 54.7 °F 53.2 °F 29.63 in Calm     95% 0.10 in meteobridge W/m2
16:14 54.5 °F 53.4 °F 29.65 in SE 6.0 mph 6.0 mph 96% 0.10 in meteobridge W/m2
16:18 54.3 °F 52.0 °F 29.66 in SSE 2.0 mph 8.0 mph 92% 0.10 in meteobridge W/m2
16:24 52.9 °F 49.5 °F 29.68 in WNW 2.0 mph 3.0 mph 88% 0.10 in meteobridge W/m2
16:29 51.4 °F 48.6 °F 29.69 in North 8.9 mph 9.0 mph 90% 0.09 in meteobridge W/m2
16:34 50.5 °F 48.4 °F 29.70 in Calm   7.0 mph 92% 0.01 in meteobridge W/m2
16:39 49.8 °F 47.7 °F 29.71 in NW 2.9 mph 5.0 mph 92% 0.00 in meteobridge W/m2
16:44 49.5 °F 47.3 °F 29.71 in Calm   4.0 mph 92% 0.00 in meteobridge W/m2
16:49 49.1 °F 46.9 °F 29.72 in Calm   4.0 mph 92% 0.00 in meteobridge W/m2
16:54 48.9 °F 46.9 °F 29.71 in Calm   3.0 mph 93% 0.00 in meteobridge W/m2
16:58 48.7 °F 47.1 °F 29.72 in WNW 0.9 mph 5.0 mph 94% 0.00 in meteobridge W/m2
17:04 48.4 °F 45.9 °F 29.72 in Calm   1.0 mph 91% 0.00 in meteobridge W/m2
17:09 48.0 °F 45.9 °F 29.72 in NNW 2.0 mph 3.0 mph 92% 0.00 in meteobridge W/m2
17:14 47.7 °F 45.1 °F 29.73 in Calm   5.0 mph 91% 0.00 in meteobridge W/m2
17:19 47.5 °F 44.4 °F 29.73 in SE 2.0 mph 5.0 mph 89% 0.00 in meteobridge W/m2
17:24 47.3 °F 43.7 °F 29.73 in ESE 4.0 mph 4.0 mph 87% 0.00 in meteobridge W/m2
17:29 46.9 °F 43.5 °F 29.73 in Calm   4.0 mph 88% 0.00 in meteobridge W/m2
17:34 46.9 °F 43.5 °F 29.73 in Calm   2.0 mph 88% 0.00 in meteobridge W/m2
17:39 46.8 °F 43.7 °F 29.73 in Calm     89% 0.00 in meteobridge W/m2
17:44 46.6 °F 43.0 °F 29.74 in Calm   1.0 mph 87% 0.00 in meteobridge W/m2
17:49 46.6 °F 42.6 °F 29.74 in Calm   4.0 mph 86% 0.00 in meteobridge W/m2
17:54 46.4 °F 42.8 °F 29.74 in Calm     87% 0.00 in meteobridge W/m2
17:59 46.2 °F 42.3 °F 29.75 in Calm   5.0 mph 86% 0.00 in meteobridge W/m2
18:04 46.0 °F 42.4 °F 29.75 in Calm     87% 0.00 in meteobridge W/m2
18:09 45.7 °F 42.6 °F 29.75 in Calm   4.0 mph 89% 0.00 in meteobridge W/m2
18:14 45.5 °F 41.9 °F 29.75 in Calm   2.0 mph 87% 0.00 in meteobridge W/m2
18:19 45.3 °F 41.7 °F 29.75 in North 0.9 mph 3.0 mph 87% 0.00 in meteobridge W/m2
18:23 45.1 °F 41.7 °F 29.75 in Calm     88% 0.00 in meteobridge W/m2
18:29 45.0 °F 41.5 °F 29.75 in Calm   3.0 mph 88% 0.00 in meteobridge W/m2
18:34 45.0 °F 41.9 °F 29.75 in Calm     89% 0.00 in meteobridge W/m2
18:39 44.8 °F 41.7 °F 29.76 in Calm     89% 0.00 in meteobridge W/m2
18:44 44.4 °F 41.2 °F 29.76 in Calm     88% 0.00 in meteobridge W/m2
18:49 44.2 °F 41.2 °F 29.76 in Calm     89% 0.00 in meteobridge W/m2
18:54 44.1 °F 41.5 °F 29.76 in Calm     91% 0.00 in meteobridge W/m2
18:59 43.9 °F 41.7 °F 29.77 in Calm     92% 0.00 in meteobridge W/m2
19:04 43.5 °F 41.4 °F 29.78 in Calm     92% 0.00 in meteobridge W/m2
19:09 43.3 °F 41.2 °F 29.78 in Calm     92% 0.00 in meteobridge W/m2
19:14 43.3 °F 41.2 °F 29.78 in Calm   3.0 mph 92% 0.00 in meteobridge W/m2
19:19 43.3 °F 41.7 °F 29.78 in WNW 2.0 mph 4.0 mph 94% 0.00 in meteobridge W/m2
19:23 43.5 °F 41.9 °F 29.78 in Calm     94% 0.00 in meteobridge W/m2
19:29 43.5 °F 41.9 °F 29.78 in Calm     94% 0.00 in meteobridge W/m2
19:34 43.7 °F 41.5 °F 29.78 in Calm     92% 0.00 in meteobridge W/m2
19:39 43.9 °F 41.7 °F 29.78 in Calm     92% 0.00 in meteobridge W/m2
19:44 43.9 °F 41.2 °F 29.79 in Calm     90% 0.00 in meteobridge W/m2
19:49 43.9 °F 41.9 °F 29.79 in Calm     93% 0.00 in meteobridge W/m2
19:54 44.1 °F 41.0 °F 29.79 in Calm     89% 0.00 in meteobridge W/m2
19:59 44.1 °F 41.4 °F 29.79 in Calm     90% 0.00 in meteobridge W/m2
20:04 43.9 °F 40.8 °F 29.79 in Calm     89% 0.00 in meteobridge W/m2
20:09 43.9 °F 41.2 °F 29.80 in Calm   1.0 mph 90% 0.00 in meteobridge W/m2
20:14 43.7 °F 41.0 °F 29.80 in Calm     90% 0.00 in meteobridge W/m2
20:19 43.5 °F 41.0 °F 29.80 in NW 0.9 mph 2.0 mph 91% 0.00 in meteobridge W/m2
20:24 43.3 °F 40.6 °F 29.80 in Calm   1.0 mph 90% 0.00 in meteobridge W/m2
20:29 43.2 °F 40.6 °F 29.80 in Calm     91% 0.00 in meteobridge W/m2
20:34 43.0 °F 40.8 °F 29.80 in Calm     92% 0.00 in meteobridge W/m2
20:39 43.0 °F 40.8 °F 29.80 in Calm     92% 0.00 in meteobridge W/m2
20:44 43.0 °F 40.8 °F 29.80 in Calm     92% 0.00 in meteobridge W/m2
20:49 43.0 °F 41.2 °F 29.80 in Calm   3.0 mph 93% 0.00 in meteobridge W/m2
20:54 43.0 °F 40.5 °F 29.80 in Calm   1.0 mph 91% 0.00 in meteobridge W/m2
20:59 43.0 °F 40.8 °F 29.81 in Calm     92% 0.00 in meteobridge W/m2
21:03 43.0 °F 40.8 °F 29.81 in West 2.9 mph 9.0 mph 92% 0.00 in meteobridge W/m2
21:09 43.0 °F 41.2 °F 29.81 in Calm     93% 0.00 in meteobridge W/m2
21:14 42.8 °F 41.2 °F 29.82 in Calm     94% 0.00 in meteobridge W/m2
21:19 42.6 °F 41.0 °F 29.82 in Calm   1.0 mph 94% 0.00 in meteobridge W/m2
21:24 42.6 °F 41.0 °F 29.82 in Calm     94% 0.00 in meteobridge W/m2
21:29 42.4 °F 41.2 °F 29.82 in Calm     95% 0.01 in meteobridge W/m2
21:34 42.4 °F 41.2 °F 29.82 in Calm     95% 0.01 in meteobridge W/m2
21:39 42.3 °F 41.0 °F 29.82 in Calm     95% 0.01 in meteobridge W/m2
21:44 42.3 °F 41.0 °F 29.82 in Calm     95% 0.01 in meteobridge W/m2
21:49 42.3 °F 40.6 °F 29.82 in Calm   5.0 mph 94% 0.01 in meteobridge W/m2
21:54 42.3 °F 41.0 °F 29.82 in Calm     95% 0.01 in meteobridge W/m2
21:59 42.3 °F 41.0 °F 29.81 in Calm   2.0 mph 95% 0.01 in meteobridge W/m2
22:04 42.1 °F 40.8 °F 29.81 in Calm   2.0 mph 95% 0.01 in meteobridge W/m2
22:09 42.1 °F 40.8 °F 29.82 in Calm   1.0 mph 95% 0.01 in meteobridge W/m2
22:14 42.1 °F 40.8 °F 29.83 in Calm   1.0 mph 95% 0.01 in meteobridge W/m2
22:19 42.1 °F 40.8 °F 29.83 in Calm   3.0 mph 95% 0.01 in meteobridge W/m2
22:24 42.1 °F 40.8 °F 29.82 in Calm   2.0 mph 95% 0.01 in meteobridge W/m2
22:29 42.1 °F 40.5 °F 29.82 in Calm   7.0 mph 94% 0.00 in meteobridge W/m2
22:34 42.1 °F 40.5 °F 29.82 in Calm     94% 0.00 in meteobridge W/m2
22:39 42.1 °F 40.8 °F 29.83 in Calm   1.0 mph 95% 0.00 in meteobridge W/m2
22:44 42.1 °F 40.5 °F 29.82 in Calm   1.0 mph 94% 0.00 in meteobridge W/m2
22:49 42.1 °F 40.3 °F 29.82 in Calm   2.0 mph 93% 0.00 in meteobridge W/m2
22:54 42.3 °F 40.6 °F 29.82 in Calm     94% 0.00 in meteobridge W/m2
22:59 42.3 °F 40.5 °F 29.81 in Calm     93% 0.00 in meteobridge W/m2
23:04 42.1 °F 40.3 °F 29.81 in Calm   2.0 mph 93% 0.00 in meteobridge W/m2
23:09 42.1 °F 40.3 °F 29.82 in Calm   1.0 mph 93% 0.00 in meteobridge W/m2
23:14 42.1 °F 40.3 °F 29.82 in Calm     93% 0.00 in meteobridge W/m2
23:19 42.1 °F 40.5 °F 29.82 in Calm     94% 0.00 in meteobridge W/m2
23:24 42.1 °F 40.5 °F 29.82 in NW 0.9 mph 2.0 mph 94% 0.00 in meteobridge W/m2
23:29 41.9 °F 40.3 °F 29.82 in Calm   2.0 mph 94% 0.00 in meteobridge W/m2
23:34 41.9 °F 40.3 °F 29.82 in Calm     94% 0.00 in meteobridge W/m2
23:39 41.9 °F 40.3 °F 29.82 in Calm   1.0 mph 94% 0.00 in meteobridge W/m2
23:44 41.9 °F 40.3 °F 29.82 in Calm     94% 0.00 in meteobridge W/m2
23:49 41.9 °F 40.1 °F 29.82 in Calm     93% 0.00 in meteobridge W/m2
23:54 41.9 °F 40.3 °F 29.83 in Calm     94% 0.00 in meteobridge W/m2
23:59 41.7 °F 39.9 °F 29.82 in Calm     93% 0.00 in meteobridge W/m2
EllijayWeather
Compliments of Weather Underground - 2.5 mb